createdAt,value
2023-05-21T00:00:48.926Z,19.34
2023-05-21T00:03:18.165Z,19.30
2023-05-21T00:05:50.213Z,19.32
2023-05-21T00:08:17.099Z,19.28
2023-05-21T00:10:46.832Z,19.28
2023-05-21T00:13:16.204Z,19.27
2023-05-21T00:15:42.944Z,19.20
2023-05-21T00:18:14.210Z,19.19
2023-05-21T00:20:41.794Z,19.20
2023-05-21T00:23:10.817Z,19.23
2023-05-21T00:25:39.870Z,19.22
2023-05-21T00:28:06.646Z,19.24
2023-05-21T00:30:33.339Z,19.25
2023-05-21T00:33:02.730Z,19.19
2023-05-21T00:35:29.847Z,19.13
2023-05-21T00:37:56.606Z,19.04
2023-05-21T00:40:25.913Z,18.91
2023-05-21T00:42:53.779Z,18.84
2023-05-21T00:45:28.004Z,18.78
2023-05-21T00:47:57.602Z,18.73
2023-05-21T00:50:26.720Z,18.62
2023-05-21T00:52:53.390Z,18.52
2023-05-21T00:55:20.387Z,18.43
2023-05-21T00:57:47.555Z,18.35
2023-05-21T01:00:19.133Z,18.39
2023-05-21T01:02:46.341Z,18.42
2023-05-21T01:05:15.894Z,18.47
2023-05-21T01:07:45.018Z,18.50
2023-05-21T01:10:11.780Z,18.45
2023-05-21T01:12:43.949Z,18.44
2023-05-21T01:15:10.975Z,18.34
2023-05-21T01:17:40.433Z,18.34
2023-05-21T01:20:17.985Z,18.28
2023-05-21T01:22:57.111Z,18.24
2023-05-21T01:25:24.440Z,18.22
2023-05-21T01:27:51.358Z,18.19
2023-05-21T01:30:18.604Z,18.16
2023-05-21T01:32:48.847Z,18.15
2023-05-21T01:35:22.824Z,18.10
2023-05-21T01:37:52.299Z,18.13
2023-05-21T01:40:24.632Z,18.15
2023-05-21T01:42:53.800Z,18.08
2023-05-21T01:45:23.253Z,18.09
2023-05-21T01:47:52.956Z,18.09
2023-05-21T01:50:19.866Z,18.03
2023-05-21T01:52:55.890Z,17.96
2023-05-21T01:55:26.198Z,17.94
2023-05-21T01:57:53.601Z,17.95
2023-05-21T02:00:24.691Z,17.98
2023-05-21T02:02:54.028Z,17.99
2023-05-21T02:05:23.353Z,18.00
2023-05-21T02:07:51.255Z,17.96
2023-05-21T02:10:25.193Z,17.94
2023-05-21T02:12:51.999Z,17.90
2023-05-21T02:15:20.988Z,17.83
2023-05-21T02:17:47.667Z,17.79
2023-05-21T02:20:14.746Z,17.79
2023-05-21T02:22:42.321Z,17.79
2023-05-21T02:25:09.999Z,17.76
2023-05-21T02:27:41.261Z,17.74
2023-05-21T02:30:08.631Z,17.71
2023-05-21T02:32:35.458Z,17.72
2023-05-21T02:35:03.941Z,17.62
2023-05-21T02:37:33.868Z,17.54
2023-05-21T02:40:01.077Z,17.50
2023-05-21T02:42:30.517Z,17.51
2023-05-21T02:44:59.700Z,17.53
2023-05-21T02:47:28.870Z,17.58
2023-05-21T02:49:55.898Z,17.56
2023-05-21T02:52:25.669Z,17.51
2023-05-21T02:54:52.696Z,17.50
2023-05-21T02:57:19.400Z,17.45
2023-05-21T02:59:46.098Z,17.46
2023-05-21T03:02:12.824Z,17.47
2023-05-21T03:04:46.246Z,17.49
2023-05-21T03:07:19.803Z,17.54
2023-05-21T03:09:49.103Z,17.56
2023-05-21T03:12:15.942Z,17.56
2023-05-21T03:14:46.639Z,17.56
2023-05-21T03:17:17.217Z,17.47
2023-05-21T03:19:49.347Z,17.47
2023-05-21T03:22:20.039Z,17.44
2023-05-21T03:24:49.193Z,17.40
2023-05-21T03:27:18.891Z,17.34
2023-05-21T03:29:55.083Z,17.39
2023-05-21T03:32:22.884Z,17.44
2023-05-21T03:34:50.454Z,17.42
2023-05-21T03:37:19.372Z,17.39
2023-05-21T03:39:46.163Z,17.44
2023-05-21T03:42:14.270Z,17.48
2023-05-21T03:44:52.126Z,17.57
2023-05-21T03:47:43.338Z,17.69
2023-05-21T03:50:11.029Z,17.71
2023-05-21T03:52:40.554Z,17.74
2023-05-21T03:55:07.388Z,17.73
2023-05-21T03:57:34.317Z,17.83
2023-05-21T04:00:04.536Z,17.75
2023-05-21T04:02:31.839Z,17.77
2023-05-21T04:04:58.639Z,17.87
2023-05-21T04:07:25.524Z,17.93
2023-05-21T04:09:57.122Z,17.97
2023-05-21T04:12:23.843Z,18.04
2023-05-21T04:14:50.471Z,18.13
2023-05-21T04:17:19.284Z,18.15
2023-05-21T04:19:51.351Z,18.25
2023-05-21T04:22:18.637Z,18.29
2023-05-21T04:24:46.580Z,18.40
2023-05-21T04:27:23.714Z,18.46
2023-05-21T04:29:56.746Z,18.66
2023-05-21T04:32:24.589Z,18.75
2023-05-21T04:34:52.327Z,18.77
2023-05-21T04:37:19.160Z,18.83
2023-05-21T04:39:48.392Z,18.90
2023-05-21T04:42:23.874Z,18.86
2023-05-21T04:44:50.811Z,18.78
2023-05-21T04:47:23.026Z,18.74
2023-05-21T04:49:53.824Z,18.69
2023-05-21T04:52:25.109Z,18.67
2023-05-21T04:54:57.269Z,18.68
2023-05-21T04:57:28.223Z,18.63
2023-05-21T04:59:58.558Z,18.66
2023-05-21T05:02:26.809Z,18.64
2023-05-21T05:05:00.119Z,18.70
2023-05-21T05:07:29.549Z,18.69
2023-05-21T05:09:58.737Z,18.70
2023-05-21T05:12:27.900Z,18.73
2023-05-21T05:14:57.483Z,18.82
2023-05-21T05:17:24.752Z,18.87
2023-05-21T05:19:51.449Z,18.87
2023-05-21T05:22:18.567Z,18.94
2023-05-21T05:24:49.218Z,19.02
2023-05-21T05:27:16.197Z,19.10
2023-05-21T05:29:44.786Z,19.19
2023-05-21T05:32:15.215Z,19.26
2023-05-21T05:34:49.615Z,19.38
2023-05-21T05:37:16.822Z,19.45
2023-05-21T05:39:44.188Z,19.58
2023-05-21T05:42:11.174Z,19.67
2023-05-21T05:44:38.153Z,19.75
2023-05-21T05:47:09.368Z,19.89
2023-05-21T05:49:41.949Z,20.01
2023-05-21T05:52:14.151Z,20.15
2023-05-21T05:54:41.598Z,20.26
2023-05-21T05:57:09.113Z,20.34
2023-05-21T05:59:39.046Z,20.40
2023-05-21T06:02:06.011Z,20.42
2023-05-21T06:04:32.837Z,20.47
2023-05-21T06:07:00.695Z,20.57
2023-05-21T06:09:27.465Z,20.62
2023-05-21T06:11:54.328Z,20.66
2023-05-21T06:14:21.241Z,20.73
2023-05-21T06:16:49.732Z,20.78
2023-05-21T06:19:17.013Z,20.82
2023-05-21T06:21:44.000Z,20.85
2023-05-21T06:24:11.261Z,20.90
2023-05-21T06:26:40.958Z,21.01
2023-05-21T06:29:10.541Z,21.09
2023-05-21T06:31:37.271Z,21.12
2023-05-21T06:34:04.398Z,21.20
2023-05-21T06:36:33.633Z,21.28
2023-05-21T06:39:01.114Z,21.34
2023-05-21T06:41:27.958Z,21.46
2023-05-21T06:43:57.937Z,21.50
2023-05-21T06:46:45.918Z,21.55
2023-05-21T06:49:14.486Z,21.57
2023-05-21T06:51:47.325Z,21.67
2023-05-21T06:54:16.540Z,21.77
2023-05-21T07:00:37.664Z,21.91
2023-05-21T07:03:37.804Z,21.98
2023-05-21T07:06:07.448Z,22.09
2023-05-21T07:08:36.805Z,22.11
2023-05-21T07:11:03.632Z,22.19
2023-05-21T07:13:30.666Z,22.24
2023-05-21T07:15:59.783Z,22.30
2023-05-21T07:18:29.201Z,22.38
2023-05-21T07:24:57.494Z,22.53
2023-05-21T07:27:26.586Z,22.62
2023-05-21T07:29:56.088Z,22.70
2023-05-21T07:32:23.014Z,22.78
2023-05-21T07:34:50.064Z,22.86
2023-05-21T07:37:27.864Z,22.92
2023-05-21T07:39:57.155Z,22.96
2023-05-21T07:42:24.155Z,23.01
2023-05-21T07:44:52.001Z,23.12
2023-05-21T07:47:21.314Z,23.16
2023-05-21T07:49:53.513Z,23.23
2023-05-21T07:52:20.863Z,23.34
2023-05-21T07:54:47.596Z,23.40
2023-05-21T07:57:16.955Z,23.43
2023-05-21T07:59:53.326Z,23.51
2023-05-21T08:02:23.476Z,23.60
2023-05-21T08:04:55.224Z,23.67
2023-05-21T08:07:24.835Z,23.73
2023-05-21T08:09:51.729Z,23.76
2023-05-21T08:12:19.740Z,23.81
2023-05-21T08:14:46.573Z,23.85
2023-05-21T08:17:15.950Z,23.91
2023-05-21T08:19:44.637Z,23.98
2023-05-21T08:22:14.439Z,24.05
2023-05-21T08:24:48.305Z,24.13
2023-05-21T08:27:18.557Z,24.25
2023-05-21T08:29:45.422Z,24.36
2023-05-21T08:32:12.140Z,24.42
2023-05-21T08:34:39.309Z,24.45
2023-05-21T08:37:32.317Z,24.51
2023-05-21T08:40:14.220Z,24.56
2023-05-21T08:42:47.288Z,24.63
2023-05-21T08:45:22.388Z,24.72
2023-05-21T08:47:56.050Z,24.79
2023-05-21T08:50:27.254Z,24.83
2023-05-21T08:52:59.527Z,24.93
2023-05-21T08:55:27.179Z,24.98
2023-05-21T08:57:54.848Z,24.98
2023-05-21T09:00:25.132Z,25.06
2023-05-21T09:02:56.353Z,25.11
2023-05-21T09:05:25.292Z,25.19
2023-05-21T09:08:09.059Z,25.29
2023-05-21T09:10:49.422Z,25.41
2023-05-21T09:13:22.446Z,25.48
2023-05-21T09:15:51.684Z,25.55
2023-05-21T09:18:19.973Z,25.62
2023-05-21T09:21:25.587Z,25.74
2023-05-21T09:23:57.005Z,25.90
2023-05-21T09:26:26.745Z,25.99
2023-05-21T09:28:58.111Z,26.04
2023-05-21T09:31:26.330Z,26.10
2023-05-21T09:33:53.626Z,26.12
2023-05-21T09:36:25.055Z,26.24
2023-05-21T09:38:52.158Z,26.36
2023-05-21T09:41:36.338Z,26.45
2023-05-21T09:44:10.695Z,26.59
2023-05-21T09:46:40.426Z,26.72
2023-05-21T09:49:08.846Z,26.82
2023-05-21T09:51:38.597Z,26.90
2023-05-21T09:54:07.581Z,27.02
2023-05-21T09:56:34.191Z,27.14
2023-05-21T09:59:04.415Z,27.28
2023-05-21T10:01:33.934Z,27.39
2023-05-21T10:04:02.057Z,27.57
2023-05-21T10:06:29.487Z,27.65
2023-05-21T10:08:57.153Z,27.69
2023-05-21T10:11:26.322Z,27.85
2023-05-21T10:13:56.185Z,28.02
2023-05-21T10:16:25.211Z,28.19
2023-05-21T10:18:54.538Z,28.26
2023-05-21T10:21:26.225Z,28.34
2023-05-21T10:23:53.700Z,28.47
2023-05-21T10:26:25.602Z,28.66
2023-05-21T10:29:00.184Z,28.80
2023-05-21T10:31:27.769Z,29.03
2023-05-21T10:33:58.151Z,29.18
2023-05-21T10:36:29.144Z,29.34
2023-05-21T10:38:56.350Z,29.46
2023-05-21T10:41:23.355Z,29.54
2023-05-21T10:43:56.595Z,29.37
2023-05-21T10:46:32.687Z,29.31
2023-05-21T10:49:17.841Z,29.48
2023-05-21T10:52:02.919Z,29.69
2023-05-21T10:54:33.140Z,29.91
2023-05-21T10:57:15.218Z,29.86
2023-05-21T10:59:50.604Z,29.83
2023-05-21T11:02:20.019Z,29.79
2023-05-21T11:04:49.408Z,29.73
2023-05-21T11:07:29.446Z,29.81
2023-05-21T11:10:10.887Z,29.70
2023-05-21T11:13:03.408Z,29.86
2023-05-21T11:15:41.583Z,29.87
2023-05-21T11:18:09.596Z,29.91
2023-05-21T11:20:36.425Z,30.34
2023-05-21T11:23:04.801Z,30.68
2023-05-21T11:25:41.916Z,30.80
2023-05-21T11:28:11.931Z,31.06
2023-05-21T11:30:40.990Z,31.37
2023-05-21T11:33:09.813Z,31.73
2023-05-21T11:35:57.304Z,32.20
2023-05-21T11:38:26.074Z,32.56
2023-05-21T11:40:57.674Z,32.85
2023-05-21T11:43:24.915Z,33.14
2023-05-21T11:45:54.463Z,33.49
2023-05-21T11:48:21.902Z,33.44
2023-05-21T11:50:49.707Z,33.63
2023-05-21T11:53:19.799Z,33.90
2023-05-21T11:56:01.937Z,34.11
2023-05-21T11:58:31.228Z,34.34
2023-05-21T12:00:58.173Z,34.61
2023-05-21T12:03:27.143Z,34.88
2023-05-21T12:05:54.428Z,35.07
2023-05-21T12:08:21.951Z,34.79
2023-05-21T12:10:48.694Z,34.69
2023-05-21T12:13:17.881Z,34.80
2023-05-21T12:15:44.521Z,35.15
2023-05-21T12:18:11.685Z,35.73
2023-05-21T12:20:38.438Z,36.18
2023-05-21T12:23:05.197Z,36.50
2023-05-21T12:25:37.502Z,37.14
2023-05-21T12:28:05.537Z,36.79
2023-05-21T12:30:34.856Z,36.11
2023-05-21T12:33:04.728Z,36.73
2023-05-21T12:35:34.264Z,37.87
2023-05-21T12:38:02.156Z,39.03
2023-05-21T12:40:38.733Z,39.02
2023-05-21T12:43:06.572Z,39.98
2023-05-21T12:45:33.195Z,41.01
2023-05-21T12:48:03.563Z,40.47
2023-05-21T12:50:32.878Z,39.93
2023-05-21T12:52:59.557Z,39.90
2023-05-21T12:55:26.483Z,38.09
2023-05-21T12:58:08.305Z,37.74
2023-05-21T13:00:35.693Z,39.15
2023-05-21T13:03:06.780Z,40.35
2023-05-21T13:05:36.285Z,41.46
2023-05-21T13:08:05.677Z,42.01
2023-05-21T13:10:35.031Z,40.61
2023-05-21T13:13:04.445Z,40.06
2023-05-21T13:15:33.458Z,40.33
2023-05-21T13:18:01.435Z,41.05
2023-05-21T13:20:28.570Z,42.16
2023-05-21T13:22:55.457Z,42.69
2023-05-21T13:25:29.282Z,43.37
2023-05-21T13:27:56.431Z,44.14
2023-05-21T13:30:25.355Z,44.96
2023-05-21T13:32:55.013Z,45.66
2023-05-21T13:35:21.926Z,45.98
2023-05-21T13:37:49.160Z,46.40
2023-05-21T13:40:18.179Z,46.75
2023-05-21T13:42:45.606Z,46.67
2023-05-21T13:45:15.302Z,46.12
2023-05-21T13:47:42.426Z,45.73
2023-05-21T13:50:09.707Z,45.20
2023-05-21T13:52:36.999Z,45.39
2023-05-21T13:57:50.291Z,46.04
2023-05-21T14:00:25.823Z,45.73
2023-05-21T14:03:02.400Z,45.93
2023-05-21T14:05:29.247Z,44.98
2023-05-21T14:07:56.384Z,45.36
2023-05-21T14:10:23.185Z,45.64
2023-05-21T14:12:52.732Z,46.11
2023-05-21T14:15:19.438Z,46.88
2023-05-21T14:17:52.438Z,47.09
2023-05-21T14:20:19.226Z,47.41
2023-05-21T14:22:46.660Z,47.52
2023-05-21T14:25:13.322Z,47.71
2023-05-21T14:27:42.843Z,47.77
2023-05-21T14:30:12.391Z,47.85
2023-05-21T14:32:39.284Z,47.71
2023-05-21T14:35:06.108Z,47.96
2023-05-21T14:37:32.891Z,47.94
2023-05-21T14:39:59.740Z,47.95
2023-05-21T14:42:26.365Z,48.10
2023-05-21T14:44:52.956Z,48.29
2023-05-21T14:47:19.635Z,47.96
2023-05-21T14:49:46.319Z,47.38
2023-05-21T14:52:12.958Z,45.62
2023-05-21T14:54:40.017Z,43.90
2023-05-21T14:57:06.766Z,42.23
2023-05-21T14:59:33.448Z,40.95
2023-05-21T15:02:00.210Z,41.23
2023-05-21T15:04:27.031Z,42.07
2023-05-21T15:06:55.946Z,43.11
2023-05-21T15:09:22.561Z,43.94
2023-05-21T15:11:52.741Z,44.20
2023-05-21T15:14:22.389Z,43.46
2023-05-21T15:16:49.116Z,42.50
2023-05-21T15:19:15.887Z,41.05
2023-05-21T15:21:42.499Z,40.12
2023-05-21T15:24:11.340Z,40.52
2023-05-21T15:26:40.344Z,41.05
2023-05-21T15:29:09.602Z,41.72
2023-05-21T15:31:36.220Z,42.08
2023-05-21T15:34:02.959Z,42.13
2023-05-21T15:36:30.986Z,42.20
2023-05-21T15:38:57.981Z,42.59
2023-05-21T15:41:24.630Z,42.64
2023-05-21T15:43:56.436Z,42.89
2023-05-21T15:46:25.876Z,42.47
2023-05-21T15:48:52.538Z,42.33
2023-05-21T15:51:19.707Z,41.74
2023-05-21T15:53:48.757Z,41.05
2023-05-21T15:56:20.265Z,40.53
2023-05-21T15:58:46.977Z,39.84
2023-05-21T16:01:17.187Z,38.75
2023-05-21T16:03:46.322Z,37.79
2023-05-21T16:06:15.564Z,37.02
2023-05-21T16:08:45.196Z,36.40
2023-05-21T16:11:12.233Z,35.89
2023-05-21T16:13:38.801Z,35.40
2023-05-21T16:16:05.606Z,35.05
2023-05-21T16:18:32.362Z,34.79
2023-05-21T16:20:59.035Z,34.17
2023-05-21T16:23:26.240Z,33.58
2023-05-21T16:25:52.844Z,33.08
2023-05-21T16:28:20.961Z,32.64
2023-05-21T16:30:47.719Z,32.31
2023-05-21T16:33:14.500Z,32.26
2023-05-21T16:35:41.310Z,32.21
2023-05-21T16:38:07.928Z,32.10
2023-05-21T16:40:41.753Z,31.75
2023-05-21T16:43:09.475Z,31.48
2023-05-21T16:45:42.574Z,31.18
2023-05-21T16:48:09.650Z,30.92
2023-05-21T16:50:41.128Z,30.73
2023-05-21T16:53:09.901Z,30.66
2023-05-21T16:55:37.248Z,30.51
2023-05-21T16:58:05.210Z,30.25
2023-05-21T17:00:32.390Z,30.00
2023-05-21T17:03:01.728Z,29.91
2023-05-21T17:05:30.876Z,29.63
2023-05-21T17:07:57.571Z,29.41
2023-05-21T17:10:25.168Z,29.24
2023-05-21T17:12:52.389Z,29.02
2023-05-21T17:15:19.059Z,28.83
2023-05-21T17:17:45.896Z,28.67
2023-05-21T17:20:12.829Z,28.53
2023-05-21T17:22:39.563Z,28.41
2023-05-21T17:25:06.536Z,28.29
2023-05-21T17:27:33.600Z,28.18
2023-05-21T17:30:00.257Z,28.02
2023-05-21T17:32:26.947Z,27.85
2023-05-21T17:46:18.135Z,25.79
2023-05-21T17:48:49.737Z,26.81
2023-05-21T17:51:16.769Z,26.15
2023-05-21T17:53:43.720Z,26.66
2023-05-21T17:56:11.436Z,26.01
2023-05-21T17:58:38.238Z,26.50
2023-05-21T18:01:05.202Z,26.39
2023-05-21T18:03:32.502Z,26.33
2023-05-21T18:05:59.343Z,25.42
2023-05-21T18:08:26.289Z,26.01
2023-05-21T18:10:53.042Z,25.88
2023-05-21T18:13:19.846Z,25.11
2023-05-21T18:15:46.687Z,25.98
2023-05-21T18:18:20.560Z,25.89
2023-05-21T18:20:50.871Z,25.03
2023-05-21T18:23:21.110Z,25.20
2023-05-21T18:25:48.037Z,25.14
2023-05-21T18:28:17.650Z,25.37
2023-05-21T18:30:49.176Z,24.75
2023-05-21T18:33:16.864Z,25.13
2023-05-21T18:35:46.196Z,25.25
2023-05-21T18:38:13.465Z,24.77
2023-05-21T18:40:42.592Z,24.70
2023-05-21T18:43:12.263Z,23.52
2023-05-21T18:45:46.277Z,24.76
2023-05-21T18:48:13.220Z,24.92
2023-05-21T18:50:40.272Z,24.85
2023-05-21T18:53:10.504Z,23.67
2023-05-21T18:55:37.482Z,24.74
2023-05-21T18:58:06.772Z,24.67
2023-05-21T19:00:36.650Z,24.62
2023-05-21T19:03:03.866Z,24.56
2023-05-21T19:05:30.900Z,24.01
2023-05-21T19:07:59.416Z,24.44
2023-05-21T19:10:32.478Z,23.98
2023-05-21T19:12:59.395Z,24.47
2023-05-21T19:15:28.460Z,24.46
2023-05-21T19:17:55.384Z,23.57
2023-05-21T19:20:27.260Z,24.26
2023-05-21T19:22:58.922Z,24.30
2023-05-21T19:25:25.862Z,24.13
2023-05-21T19:27:55.060Z,20.39
2023-05-21T19:30:24.837Z,23.84
2023-05-21T19:32:51.702Z,23.44
2023-05-21T19:35:18.646Z,23.35
2023-05-21T19:37:45.560Z,22.42
2023-05-21T19:40:12.805Z,23.21
2023-05-21T19:42:42.213Z,22.57
2023-05-21T19:45:09.832Z,22.44
2023-05-21T19:47:41.451Z,22.89
2023-05-21T19:50:11.882Z,23.02
2023-05-21T19:52:39.315Z,22.97
2023-05-21T19:55:09.781Z,22.93
2023-05-21T19:57:39.873Z,22.07
2023-05-21T20:00:10.419Z,22.44
2023-05-21T20:02:43.200Z,22.84
2023-05-21T20:05:12.587Z,22.81
2023-05-21T20:07:39.648Z,21.78
2023-05-21T20:10:07.429Z,22.57
2023-05-21T20:12:34.289Z,22.68
2023-05-21T20:15:01.341Z,21.98
2023-05-21T20:17:28.953Z,22.28
2023-05-21T20:19:57.369Z,22.07
2023-05-21T20:22:26.478Z,22.21
2023-05-21T20:24:55.993Z,22.24
2023-05-21T20:27:24.155Z,21.73
2023-05-21T20:29:50.877Z,22.07
2023-05-21T20:32:18.259Z,21.31
2023-05-21T20:34:58.798Z,21.53
2023-05-21T20:37:35.118Z,20.44
2023-05-21T20:40:02.074Z,21.65
2023-05-21T20:42:34.125Z,21.01
2023-05-21T20:45:03.848Z,21.41
2023-05-21T20:47:33.928Z,21.62
2023-05-21T20:50:02.889Z,20.80
2023-05-21T20:52:29.929Z,21.34
2023-05-21T20:54:59.432Z,20.21
2023-05-21T20:57:31.666Z,21.13
2023-05-21T21:00:00.971Z,20.78
2023-05-21T21:02:30.134Z,21.55
2023-05-21T21:04:57.935Z,20.58
2023-05-21T21:07:24.921Z,21.42
2023-05-21T21:09:51.667Z,21.84
2023-05-21T21:12:25.372Z,21.79
2023-05-21T21:14:55.725Z,21.60
2023-05-21T21:17:23.242Z,21.70
2023-05-21T21:19:52.336Z,21.82
2023-05-21T21:22:19.500Z,21.05
2023-05-21T21:24:46.949Z,21.53
2023-05-21T21:27:13.785Z,21.19
2023-05-21T21:29:40.787Z,21.46
2023-05-21T21:32:10.516Z,21.68
2023-05-21T21:34:39.775Z,21.52
2023-05-21T21:37:06.663Z,20.63
2023-05-21T21:39:35.715Z,21.17
2023-05-21T21:42:02.356Z,21.06
2023-05-21T21:44:29.458Z,20.40
2023-05-21T21:46:56.271Z,20.55
2023-05-21T21:49:23.258Z,19.83
2023-05-21T21:51:51.308Z,20.41
2023-05-21T21:54:18.158Z,20.27
2023-05-21T21:56:45.028Z,20.80
2023-05-21T21:59:14.271Z,20.60
2023-05-21T22:01:41.966Z,20.22
2023-05-21T22:04:08.911Z,20.24
2023-05-21T22:06:39.001Z,20.57
2023-05-21T22:09:09.205Z,20.09
2023-05-21T22:11:36.405Z,20.20
2023-05-21T22:14:08.604Z,19.74
2023-05-21T22:16:36.698Z,20.59
2023-05-21T22:19:05.817Z,20.29
2023-05-21T22:21:34.777Z,20.47
2023-05-21T22:24:04.668Z,20.06
2023-05-21T22:26:34.114Z,20.41
2023-05-21T22:29:01.033Z,20.38
2023-05-21T22:31:30.580Z,19.44
2023-05-21T22:34:00.067Z,19.30
2023-05-21T22:36:29.935Z,20.07
2023-05-21T22:38:59.348Z,20.41
2023-05-21T22:41:28.612Z,19.93
2023-05-21T22:43:55.882Z,19.49
2023-05-21T22:46:22.881Z,19.93
2023-05-21T22:48:49.787Z,20.46
2023-05-21T22:51:16.780Z,20.50
2023-05-21T22:53:43.949Z,20.49
2023-05-21T22:56:10.753Z,20.39
2023-05-21T22:58:39.789Z,20.40
2023-05-21T23:01:06.631Z,19.90
2023-05-21T23:03:33.547Z,19.65
2023-05-21T23:06:02.899Z,18.98
2023-05-21T23:08:32.014Z,20.27
2023-05-21T23:11:03.617Z,20.25
2023-05-21T23:13:32.664Z,19.46
2023-05-21T23:15:59.623Z,19.83
2023-05-21T23:18:28.989Z,19.33
2023-05-21T23:20:55.856Z,19.81
2023-05-21T23:23:22.666Z,19.33
2023-05-21T23:25:49.621Z,19.83
2023-05-21T23:28:19.275Z,19.84
2023-05-21T23:30:46.673Z,19.91
2023-05-21T23:33:13.880Z,19.65
2023-05-21T23:35:40.874Z,19.92
2023-05-21T23:38:07.759Z,19.48
2023-05-21T23:40:39.696Z,19.91
2023-05-21T23:43:07.007Z,19.94
2023-05-21T23:45:33.897Z,19.10
2023-05-21T23:48:00.910Z,19.35
2023-05-21T23:50:27.800Z,19.45
2023-05-21T23:52:56.864Z,19.93
2023-05-21T23:55:23.918Z,19.90
2023-05-21T23:57:50.692Z,19.70
